createdAt,value
2023-03-28T00:00:24.077Z,50.46
2023-03-28T00:01:24.091Z,43.95
2023-03-28T00:02:24.050Z,44.28
2023-03-28T00:03:24.064Z,44.01
2023-03-28T00:04:25.039Z,44.82
2023-03-28T00:05:24.064Z,62.75
2023-03-28T00:06:24.310Z,44.71
2023-03-28T00:07:24.007Z,46.75
2023-03-28T00:08:23.986Z,50.36
2023-03-28T00:09:23.975Z,52.74
2023-03-28T00:10:24.012Z,50.31
2023-03-28T00:11:23.976Z,44.00
2023-03-28T00:12:23.957Z,43.82
2023-03-28T00:13:23.964Z,43.91
2023-03-28T00:14:23.987Z,43.92
2023-03-28T00:15:23.920Z,43.63
2023-03-28T00:16:23.973Z,43.98
2023-03-28T00:17:23.975Z,50.81
2023-03-28T00:18:23.939Z,51.19
2023-03-28T00:19:23.915Z,44.21
2023-03-28T00:20:23.953Z,49.80
2023-03-28T00:21:24.108Z,45.27
2023-03-28T00:22:23.917Z,60.41
2023-03-28T00:23:23.881Z,54.86
2023-03-28T00:24:23.886Z,51.39
2023-03-28T00:25:23.854Z,48.65
2023-03-28T00:26:23.866Z,52.27
2023-03-28T00:27:23.875Z,51.73
2023-03-28T00:28:23.839Z,44.74
2023-03-28T00:29:23.853Z,55.97
2023-03-28T00:30:23.833Z,50.31
2023-03-28T00:31:24.632Z,52.08
2023-03-28T00:32:23.899Z,58.07
2023-03-28T00:33:23.799Z,52.11
2023-03-28T00:34:23.791Z,54.53
2023-03-28T00:35:23.818Z,56.47
2023-03-28T00:36:23.779Z,43.98
2023-03-28T00:37:23.801Z,50.00
2023-03-28T00:38:23.772Z,45.06
2023-03-28T00:39:23.776Z,44.82
2023-03-28T00:40:23.747Z,58.15
2023-03-28T00:41:23.753Z,54.99
2023-03-28T00:42:23.746Z,50.39
2023-03-28T00:43:23.744Z,59.57
2023-03-28T00:44:23.711Z,60.85
2023-03-28T00:45:23.737Z,56.64
2023-03-28T00:46:23.731Z,60.43
2023-03-28T00:47:23.702Z,51.35
2023-03-28T00:48:23.716Z,50.43
2023-03-28T00:49:24.130Z,50.04
2023-03-28T00:50:23.665Z,43.84
2023-03-28T00:51:23.637Z,49.63
2023-03-28T00:52:24.647Z,44.20
2023-03-28T00:53:23.686Z,49.31
2023-03-28T00:54:23.718Z,43.69
2023-03-28T00:55:23.702Z,43.66
2023-03-28T00:56:23.630Z,47.93
2023-03-28T00:57:23.614Z,56.89
2023-03-28T00:58:23.597Z,45.69
2023-03-28T00:59:24.647Z,51.71
2023-03-28T01:00:23.602Z,50.04
2023-03-28T01:01:23.624Z,47.91
2023-03-28T01:02:23.637Z,57.43
2023-03-28T01:03:23.589Z,43.90
2023-03-28T01:04:23.607Z,43.59
2023-03-28T01:05:23.618Z,44.49
2023-03-28T01:06:23.576Z,44.77
2023-03-28T01:07:23.561Z,44.96
2023-03-28T01:08:23.566Z,56.25
2023-03-28T01:09:23.536Z,44.87
2023-03-28T01:10:23.514Z,46.37
2023-03-28T01:11:23.513Z,50.84
2023-03-28T01:12:23.521Z,52.92
2023-03-28T01:13:23.503Z,55.86
2023-03-28T01:14:23.527Z,45.87
2023-03-28T01:15:23.479Z,48.68
2023-03-28T01:16:23.476Z,53.32
2023-03-28T01:17:23.526Z,45.89
2023-03-28T01:18:23.456Z,43.28
2023-03-28T01:19:23.481Z,43.82
2023-03-28T01:20:23.463Z,51.44
2023-03-28T01:21:23.440Z,48.58
2023-03-28T01:22:23.465Z,46.30
2023-03-28T01:23:23.421Z,46.16
2023-03-28T01:24:23.397Z,46.83
2023-03-28T01:25:23.410Z,49.13
2023-03-28T01:26:23.436Z,52.82
2023-03-28T01:27:23.430Z,48.79
2023-03-28T01:28:23.411Z,48.93
2023-03-28T01:29:23.373Z,59.15
2023-03-28T01:30:24.367Z,43.85
2023-03-28T01:31:23.455Z,43.67
2023-03-28T01:32:23.402Z,50.97
2023-03-28T01:33:23.374Z,43.54
2023-03-28T01:34:23.350Z,43.24
2023-03-28T01:35:23.359Z,45.71
2023-03-28T01:36:34.477Z,51.17
2023-03-28T01:37:24.349Z,51.19
2023-03-28T01:38:23.328Z,51.33
2023-03-28T01:39:23.388Z,45.19
2023-03-28T01:40:23.324Z,48.55
2023-03-28T01:41:23.293Z,43.60
2023-03-28T01:42:23.297Z,43.96
2023-03-28T01:43:23.276Z,43.50
2023-03-28T01:44:24.098Z,43.99
2023-03-28T01:45:23.279Z,51.43
2023-03-28T01:46:23.357Z,49.28
2023-03-28T01:47:23.252Z,43.31
2023-03-28T01:48:23.239Z,49.97
2023-03-28T01:49:23.276Z,49.94
2023-03-28T01:50:23.942Z,44.01
2023-03-28T01:51:23.236Z,43.46
2023-03-28T01:52:23.216Z,46.60
2023-03-28T01:53:23.214Z,46.41
2023-03-28T01:54:23.910Z,43.36
2023-03-28T01:55:23.178Z,43.37
2023-03-28T01:56:23.231Z,43.35
2023-03-28T01:57:23.243Z,43.43
2023-03-28T01:58:23.199Z,43.33
2023-03-28T01:59:23.131Z,50.10
2023-03-28T02:00:23.189Z,44.16
2023-03-28T02:01:23.287Z,55.14
2023-03-28T02:02:23.248Z,57.75
2023-03-28T02:03:23.198Z,43.78
2023-03-28T02:04:23.116Z,43.69
2023-03-28T02:05:23.201Z,44.97
2023-03-28T02:06:23.113Z,50.09
2023-03-28T02:07:23.092Z,44.56
2023-03-28T02:08:23.098Z,53.99
2023-03-28T02:09:24.592Z,45.20
2023-03-28T02:10:23.088Z,59.15
2023-03-28T02:11:23.086Z,55.10
2023-03-28T02:12:23.051Z,48.45
2023-03-28T02:13:23.072Z,45.66
2023-03-28T02:14:23.026Z,49.44
2023-03-28T02:15:23.014Z,44.29
2023-03-28T02:16:23.074Z,56.65
2023-03-28T02:17:23.049Z,57.35
2023-03-28T02:18:22.989Z,43.60
2023-03-28T02:19:23.028Z,43.79
2023-03-28T02:20:23.019Z,51.51
2023-03-28T02:21:22.962Z,49.81
2023-03-28T02:22:22.974Z,49.81
2023-03-28T02:23:23.915Z,44.71
2023-03-28T02:24:22.954Z,43.66
2023-03-28T02:25:22.971Z,43.94
2023-03-28T02:26:22.963Z,43.74
2023-03-28T02:27:22.932Z,44.79
2023-03-28T02:28:22.929Z,55.30
2023-03-28T02:29:22.910Z,50.27
2023-03-28T02:30:22.931Z,50.31
2023-03-28T02:31:22.957Z,49.13
2023-03-28T02:32:22.982Z,52.87
2023-03-28T02:33:22.888Z,50.34
2023-03-28T02:34:22.879Z,51.60
2023-03-28T02:35:22.974Z,51.51
2023-03-28T02:36:22.895Z,58.50
2023-03-28T02:37:22.910Z,56.14
2023-03-28T02:38:23.588Z,46.27
2023-03-28T02:39:22.870Z,50.43
2023-03-28T02:40:22.864Z,46.94
2023-03-28T02:41:22.846Z,50.76
2023-03-28T02:42:22.803Z,44.79
2023-03-28T02:43:22.843Z,45.12
2023-03-28T02:44:22.819Z,49.80
2023-03-28T02:45:22.817Z,49.56
2023-03-28T02:46:22.889Z,55.46
2023-03-28T02:47:22.841Z,50.33
2023-03-28T02:48:22.797Z,51.40
2023-03-28T02:49:22.778Z,52.62
2023-03-28T02:50:22.844Z,48.33
2023-03-28T02:51:22.754Z,56.11
2023-03-28T02:52:22.785Z,57.84
2023-03-28T02:53:22.752Z,48.31
2023-03-28T02:54:22.794Z,52.35
2023-03-28T02:55:22.763Z,44.27
2023-03-28T02:56:22.731Z,52.42
2023-03-28T02:57:22.744Z,56.48
2023-03-28T02:58:22.718Z,53.63
2023-03-28T02:59:22.710Z,62.03
2023-03-28T03:00:22.766Z,56.69
2023-03-28T03:01:22.709Z,60.42
2023-03-28T03:02:22.719Z,43.63
2023-03-28T03:03:22.773Z,47.42
2023-03-28T03:04:22.662Z,60.17
2023-03-28T03:05:22.800Z,56.18
2023-03-28T03:06:22.680Z,47.91
2023-03-28T03:07:22.639Z,60.03
2023-03-28T03:08:22.713Z,58.64
2023-03-28T03:09:22.656Z,59.18
2023-03-28T03:10:22.621Z,51.44
2023-03-28T03:11:22.609Z,61.27
2023-03-28T03:12:22.601Z,51.93
2023-03-28T03:13:22.607Z,61.63
2023-03-28T03:14:22.609Z,54.43
2023-03-28T03:15:23.608Z,65.35
2023-03-28T03:16:22.724Z,48.48
2023-03-28T03:17:22.577Z,46.79
2023-03-28T03:18:22.682Z,61.15
2023-03-28T03:19:22.580Z,62.35
2023-03-28T03:20:22.640Z,56.22
2023-03-28T03:21:23.089Z,65.70
2023-03-28T03:22:22.549Z,64.73
2023-03-28T03:23:22.557Z,54.42
2023-03-28T03:24:22.545Z,55.87
2023-03-28T03:25:22.527Z,54.18
2023-03-28T03:26:22.512Z,59.02
2023-03-28T03:27:22.503Z,65.97
2023-03-28T03:28:22.487Z,61.42
2023-03-28T03:29:22.475Z,56.93
2023-03-28T03:30:22.466Z,61.84
2023-03-28T03:31:22.572Z,59.17
2023-03-28T03:32:22.505Z,61.74
2023-03-28T03:33:22.468Z,61.45
2023-03-28T03:34:22.465Z,63.34
2023-03-28T03:35:22.448Z,66.97
2023-03-28T03:36:22.436Z,66.53
2023-03-28T03:37:22.425Z,67.27
2023-03-28T03:38:22.440Z,63.37
2023-03-28T03:39:22.478Z,61.95
2023-03-28T03:40:22.407Z,62.61
2023-03-28T03:41:22.410Z,66.28
2023-03-28T03:42:22.406Z,66.01
2023-03-28T03:43:22.426Z,63.44
2023-03-28T03:44:22.391Z,65.63
2023-03-28T03:45:22.356Z,56.29
2023-03-28T03:46:22.415Z,69.43
2023-03-28T04:03:44.325Z,57.79
2023-03-28T04:04:44.248Z,66.61
2023-03-28T04:05:45.341Z,58.10
2023-03-28T04:06:45.367Z,65.01
2023-03-28T04:07:45.332Z,61.16
2023-03-28T04:08:45.327Z,70.28
2023-03-28T04:09:45.333Z,69.77
2023-03-28T04:10:47.214Z,65.39
2023-03-28T04:11:45.297Z,66.51
2023-03-28T04:12:45.300Z,63.21
2023-03-28T04:13:45.279Z,58.56
2023-03-28T04:14:45.290Z,64.84
2023-03-28T04:15:45.322Z,71.11
2023-03-28T04:16:45.356Z,56.16
2023-03-28T04:17:45.294Z,67.17
2023-03-28T04:18:45.254Z,68.49
2023-03-28T04:19:45.279Z,69.95
2023-03-28T04:20:45.260Z,68.46
2023-03-28T04:21:45.239Z,64.54
2023-03-28T04:22:46.363Z,69.38
2023-03-28T04:23:45.220Z,61.18
2023-03-28T04:24:45.370Z,69.63
2023-03-28T04:25:45.181Z,68.24
2023-03-28T04:26:46.201Z,69.55
2023-03-28T04:27:45.207Z,73.50
2023-03-28T04:28:46.934Z,66.36
2023-03-28T04:29:45.162Z,65.81
2023-03-28T04:30:45.945Z,69.04
2023-03-28T04:31:45.196Z,67.16
2023-03-28T04:32:45.172Z,67.09
2023-03-28T04:33:45.141Z,69.40
2023-03-28T04:34:45.151Z,68.59
2023-03-28T04:35:45.134Z,67.23
2023-03-28T04:36:45.158Z,65.76
2023-03-28T04:37:45.114Z,72.09
2023-03-28T04:38:45.109Z,63.90
2023-03-28T04:39:45.942Z,67.57
2023-03-28T04:40:45.087Z,68.26
2023-03-28T04:41:45.153Z,65.41
2023-03-28T04:42:45.101Z,69.38
2023-03-28T04:43:45.064Z,71.42
2023-03-28T04:44:45.074Z,68.69
2023-03-28T04:45:45.070Z,71.49
2023-03-28T04:46:45.076Z,68.03
2023-03-28T04:47:45.117Z,71.93
2023-03-28T04:48:45.037Z,70.88
2023-03-28T04:49:45.026Z,69.24
2023-03-28T04:50:45.038Z,69.69
2023-03-28T04:51:45.016Z,65.52
2023-03-28T04:52:45.019Z,67.55
2023-03-28T04:53:45.003Z,70.88
2023-03-28T04:54:45.031Z,70.13
2023-03-28T04:55:45.001Z,66.48
2023-03-28T04:56:45.025Z,68.01
2023-03-28T04:57:45.010Z,63.19
2023-03-28T04:58:44.950Z,64.90
2023-03-28T04:59:44.966Z,68.45
2023-03-28T05:00:44.938Z,65.86
2023-03-28T05:01:45.013Z,71.70
2023-03-28T05:02:45.015Z,60.09
2023-03-28T05:03:44.966Z,68.53
2023-03-28T05:04:44.916Z,66.26
2023-03-28T05:05:44.950Z,67.68
2023-03-28T05:06:44.899Z,64.44
2023-03-28T05:07:44.904Z,70.83
2023-03-28T05:08:44.920Z,69.72
2023-03-28T05:09:44.862Z,73.73
2023-03-28T05:10:44.899Z,70.45
2023-03-28T05:11:44.852Z,72.44
2023-03-28T05:12:44.846Z,70.24
2023-03-28T05:13:45.474Z,71.57
2023-03-28T05:14:44.855Z,70.75
2023-03-28T05:15:44.820Z,70.79
2023-03-28T05:16:44.888Z,69.64
2023-03-28T05:17:44.894Z,72.62
2023-03-28T05:18:44.805Z,69.63
2023-03-28T05:19:44.842Z,71.45
2023-03-28T05:20:44.781Z,72.74
2023-03-28T05:21:45.436Z,70.67
2023-03-28T05:22:44.779Z,71.26
2023-03-28T05:23:44.771Z,72.25
2023-03-28T05:24:45.798Z,72.01
2023-03-28T05:25:44.787Z,72.31
2023-03-28T05:26:44.750Z,71.34
2023-03-28T05:27:44.808Z,73.41
2023-03-28T05:28:45.468Z,73.56
2023-03-28T05:29:45.464Z,70.59
2023-03-28T05:30:44.707Z,73.62
2023-03-28T05:31:44.767Z,72.27
2023-03-28T05:32:44.772Z,71.00
2023-03-28T05:33:44.702Z,73.81
2023-03-28T05:34:44.697Z,72.78
2023-03-28T05:35:44.754Z,70.57
2023-03-28T05:36:44.687Z,72.49
2023-03-28T05:37:46.744Z,66.52
2023-03-28T05:38:44.719Z,72.93
2023-03-28T05:39:44.625Z,71.99
2023-03-28T05:40:44.651Z,69.99
2023-03-28T05:41:44.627Z,75.04
2023-03-28T05:42:44.629Z,68.42
2023-03-28T05:43:44.610Z,74.69
2023-03-28T05:44:44.616Z,69.88
2023-03-28T05:45:44.647Z,64.02
2023-03-28T05:46:44.617Z,72.99
2023-03-28T05:47:44.633Z,71.23
2023-03-28T05:48:49.437Z,66.99
2023-03-28T05:49:46.293Z,73.05
2023-03-28T05:50:44.550Z,70.08
2023-03-28T05:51:44.565Z,69.90
2023-03-28T05:52:44.569Z,64.54
2023-03-28T05:53:44.541Z,71.29
2023-03-28T05:54:50.385Z,70.89
2023-03-28T05:55:45.518Z,69.13
2023-03-28T05:56:44.539Z,70.46
2023-03-28T05:57:44.511Z,68.72
2023-03-28T05:58:44.527Z,70.26
2023-03-28T05:59:45.421Z,63.96
2023-03-28T06:00:45.471Z,69.11
2023-03-28T06:01:45.031Z,73.53
2023-03-28T06:02:44.527Z,66.49
2023-03-28T06:03:44.596Z,65.98
2023-03-28T06:04:44.525Z,69.15
2023-03-28T06:05:44.452Z,64.85
2023-03-28T06:06:47.702Z,72.11
2023-03-28T06:07:44.418Z,68.39
2023-03-28T06:08:44.438Z,68.54
2023-03-28T06:09:44.396Z,68.83
2023-03-28T06:10:44.475Z,73.75
2023-03-28T06:11:44.392Z,69.84
2023-03-28T06:12:44.370Z,69.65
2023-03-28T06:13:44.379Z,67.35
2023-03-28T06:15:16.879Z,64.00
2023-03-28T06:15:44.364Z,70.74
2023-03-28T06:16:44.391Z,73.94
2023-03-28T06:17:44.400Z,69.50
2023-03-28T06:18:44.347Z,67.73
2023-03-28T06:19:44.370Z,67.29
2023-03-28T06:20:44.321Z,71.74
2023-03-28T06:21:44.317Z,65.93
2023-03-28T06:22:44.302Z,70.93
2023-03-28T06:23:44.358Z,63.42
2023-03-28T06:24:44.313Z,66.34
2023-03-28T06:25:44.282Z,66.09
2023-03-28T06:26:44.303Z,69.23
2023-03-28T06:27:44.262Z,70.94
2023-03-28T06:28:44.618Z,62.83
2023-03-28T06:29:44.240Z,66.19
2023-03-28T06:30:44.269Z,65.79
2023-03-28T06:31:44.288Z,70.21
2023-03-28T06:32:44.358Z,66.09
2023-03-28T06:33:44.204Z,67.24
2023-03-28T06:34:44.235Z,69.95
2023-03-28T06:35:44.228Z,62.92
2023-03-28T06:36:44.217Z,65.36
2023-03-28T06:37:44.222Z,60.83
2023-03-28T06:38:44.201Z,65.08
2023-03-28T06:39:44.309Z,70.40
2023-03-28T06:40:44.198Z,70.68
2023-03-28T06:41:44.163Z,69.26
2023-03-28T06:42:44.190Z,67.91
2023-03-28T06:43:44.157Z,60.65
2023-03-28T06:44:44.154Z,66.86
2023-03-28T06:45:44.189Z,69.66
2023-03-28T06:46:44.197Z,69.35
2023-03-28T06:47:44.150Z,69.32
2023-03-28T06:48:44.136Z,71.01
2023-03-28T06:49:44.103Z,57.90
2023-03-28T06:50:44.091Z,65.55
2023-03-28T06:51:44.092Z,64.93
2023-03-28T06:52:44.100Z,71.21
2023-03-28T06:53:44.074Z,69.15
2023-03-28T06:54:45.284Z,68.58
2023-03-28T06:55:44.050Z,67.63
2023-03-28T06:56:44.047Z,64.08
2023-03-28T06:57:44.060Z,67.76
2023-03-28T06:58:44.044Z,68.31
2023-03-28T06:59:44.008Z,59.30
2023-03-28T07:00:44.030Z,68.05
2023-03-28T07:01:44.074Z,69.93
2023-03-28T07:02:44.140Z,59.35
2023-03-28T07:03:44.096Z,63.11
2023-03-28T07:04:43.992Z,67.14
2023-03-28T07:05:43.985Z,66.02
2023-03-28T07:06:43.971Z,72.33
2023-03-28T07:07:44.020Z,68.41
2023-03-28T07:08:44.003Z,66.80
2023-03-28T07:09:43.973Z,64.66
2023-03-28T07:10:43.951Z,68.92
2023-03-28T07:11:43.920Z,70.00
2023-03-28T07:12:43.930Z,68.99
2023-03-28T07:13:43.935Z,68.52
2023-03-28T07:14:43.921Z,62.63
2023-03-28T07:15:43.965Z,52.08
2023-03-28T07:16:43.913Z,65.09
2023-03-28T07:17:43.903Z,64.83
2023-03-28T07:18:43.922Z,70.67
2023-03-28T07:19:43.875Z,66.31
2023-03-28T07:20:45.647Z,59.82
2023-03-28T07:21:45.861Z,66.86
2023-03-28T07:22:43.842Z,67.73
2023-03-28T07:23:43.909Z,64.81
2023-03-28T07:24:43.895Z,68.26
2023-03-28T07:25:43.860Z,59.60
2023-03-28T07:26:43.877Z,66.31
2023-03-28T07:27:43.821Z,67.32
2023-03-28T07:28:43.827Z,68.68
2023-03-28T07:29:43.814Z,60.70
2023-03-28T07:30:43.800Z,62.10
2023-03-28T07:31:43.934Z,59.27
2023-03-28T07:32:53.026Z,68.13
2023-03-28T07:33:45.884Z,70.87
2023-03-28T07:34:43.776Z,67.90
2023-03-28T07:35:46.054Z,61.74
2023-03-28T07:36:43.788Z,65.38
2023-03-28T07:37:43.761Z,61.66
2023-03-28T07:38:44.242Z,68.02
2023-03-28T07:39:43.758Z,68.46
2023-03-28T07:40:43.815Z,71.09
2023-03-28T07:41:43.728Z,58.34
2023-03-28T07:42:43.860Z,68.00
2023-03-28T07:43:43.682Z,63.30
2023-03-28T07:44:43.669Z,65.78
2023-03-28T07:45:44.588Z,65.11
2023-03-28T07:46:43.662Z,68.28
2023-03-28T07:47:44.403Z,67.44
2023-03-28T07:48:43.704Z,63.44
2023-03-28T07:49:43.656Z,67.81
2023-03-28T07:50:43.623Z,57.97
2023-03-28T07:51:44.041Z,60.79
2023-03-28T07:52:43.613Z,68.06
2023-03-28T07:53:43.605Z,63.76
2023-03-28T07:54:43.596Z,68.05
2023-03-28T07:55:54.588Z,69.99
2023-03-28T07:56:45.628Z,57.95
2023-03-28T07:57:43.570Z,65.84
2023-03-28T07:58:43.588Z,70.15
2023-03-28T07:59:43.579Z,62.93
2023-03-28T08:00:43.540Z,66.62
2023-03-28T08:01:43.560Z,63.38
2023-03-28T08:02:45.077Z,63.54
2023-03-28T08:03:44.629Z,67.76
2023-03-28T08:04:43.582Z,63.78
2023-03-28T08:05:43.566Z,62.77
2023-03-28T08:06:43.598Z,65.76
2023-03-28T08:07:43.529Z,67.71
2023-03-28T08:08:43.496Z,66.65
2023-03-28T08:09:43.522Z,68.25
2023-03-28T08:10:43.471Z,57.54
2023-03-28T08:11:43.495Z,62.30
2023-03-28T08:12:44.511Z,72.68
2023-03-28T08:13:43.469Z,66.06
2023-03-28T08:14:43.464Z,64.54
2023-03-28T08:15:43.458Z,65.28
2023-03-28T08:16:43.475Z,70.17
2023-03-28T08:17:43.589Z,66.84
2023-03-28T08:18:43.484Z,67.69
2023-03-28T08:19:43.415Z,63.18
2023-03-28T08:20:43.414Z,64.04
2023-03-28T08:21:43.415Z,58.21
2023-03-28T08:22:43.393Z,60.82
2023-03-28T08:23:43.404Z,69.28
2023-03-28T08:24:43.393Z,62.66
2023-03-28T08:25:43.998Z,64.21
2023-03-28T08:26:43.364Z,66.49
2023-03-28T08:27:43.415Z,56.68
2023-03-28T08:28:43.354Z,67.82
2023-03-28T08:29:43.343Z,67.00
2023-03-28T08:30:43.317Z,62.97
2023-03-28T08:31:43.387Z,61.86
2023-03-28T08:32:43.326Z,68.25
2023-03-28T08:33:43.358Z,68.70
2023-03-28T08:34:43.358Z,66.48
2023-03-28T08:35:43.287Z,66.40
2023-03-28T08:36:43.314Z,68.92
2023-03-28T08:37:43.301Z,71.14
2023-03-28T08:38:43.261Z,67.88
2023-03-28T08:39:43.266Z,62.18
2023-03-28T08:40:43.244Z,69.85
2023-03-28T08:41:43.279Z,63.31
2023-03-28T08:42:43.237Z,64.63
2023-03-28T08:43:43.246Z,69.39
2023-03-28T08:44:43.234Z,60.69
2023-03-28T08:45:44.028Z,60.65
2023-03-28T08:46:43.242Z,67.82
2023-03-28T08:47:43.238Z,61.23
2023-03-28T08:48:43.239Z,58.45
2023-03-28T08:49:43.177Z,68.73
2023-03-28T08:50:43.207Z,62.69
2023-03-28T08:51:43.146Z,66.25
2023-03-28T08:52:43.155Z,61.52
2023-03-28T08:53:43.157Z,66.36
2023-03-28T08:54:43.158Z,55.25
2023-03-28T08:56:15.090Z,69.53
2023-03-28T08:56:43.129Z,59.11
2023-03-28T08:57:44.035Z,57.41
2023-03-28T08:58:43.290Z,65.54
2023-03-28T08:59:43.108Z,61.88
2023-03-28T09:00:43.095Z,61.84
2023-03-28T09:01:43.124Z,64.79
2023-03-28T09:02:43.213Z,65.53
2023-03-28T09:03:43.176Z,69.50
2023-03-28T09:04:43.281Z,67.10
2023-03-28T09:05:43.051Z,64.55
2023-03-28T09:06:43.075Z,67.14
2023-03-28T09:07:43.049Z,64.03
2023-03-28T09:08:43.034Z,66.19
2023-03-28T09:09:43.033Z,64.48
2023-03-28T09:10:43.000Z,67.58
2023-03-28T09:11:43.051Z,61.36
2023-03-28T09:12:43.029Z,58.80
2023-03-28T09:13:43.525Z,65.05
2023-03-28T09:14:43.016Z,65.64
2023-03-28T09:15:43.027Z,60.16
2023-03-28T09:16:43.083Z,67.53
2023-03-28T09:17:43.010Z,66.97
2023-03-28T09:18:42.969Z,66.25
2023-03-28T09:19:48.434Z,64.99
2023-03-28T09:20:44.947Z,61.71
2023-03-28T09:21:42.907Z,66.21
2023-03-28T09:22:42.990Z,66.96
2023-03-28T09:23:42.902Z,66.89
2023-03-28T09:24:42.912Z,67.48
2023-03-28T09:25:42.895Z,62.09
2023-03-28T09:26:42.909Z,66.44
2023-03-28T09:27:42.899Z,59.78
2023-03-28T09:28:42.941Z,68.26
2023-03-28T09:29:42.878Z,66.29
2023-03-28T09:30:42.860Z,63.73
2023-03-28T09:31:43.143Z,62.86
2023-03-28T09:32:42.886Z,70.95
2023-03-28T09:33:42.843Z,65.78
2023-03-28T09:34:42.840Z,66.20
2023-03-28T09:35:42.834Z,67.25
2023-03-28T09:36:48.929Z,62.96
2023-03-28T09:37:44.845Z,68.81
2023-03-28T09:38:42.805Z,63.90
2023-03-28T09:39:42.797Z,61.96
2023-03-28T09:40:42.778Z,62.83
2023-03-28T09:41:42.789Z,59.40
2023-03-28T09:42:42.909Z,69.10
2023-03-28T09:43:42.815Z,61.46
2023-03-28T09:44:53.507Z,65.53
2023-03-28T09:45:44.808Z,66.38
2023-03-28T09:46:42.769Z,64.76
2023-03-28T09:47:42.831Z,68.06
2023-03-28T09:48:42.800Z,63.68
2023-03-28T09:49:42.731Z,58.48
2023-03-28T09:50:42.680Z,69.01
2023-03-28T09:51:42.712Z,69.53
2023-03-28T09:52:42.736Z,64.05
2023-03-28T09:53:42.673Z,68.86
2023-03-28T09:54:42.671Z,69.94
2023-03-28T09:55:45.351Z,68.84
2023-03-28T09:56:44.702Z,67.00
2023-03-28T09:57:42.641Z,64.82
2023-03-28T09:58:42.762Z,68.61
2023-03-28T09:59:42.632Z,61.42
2023-03-28T10:00:42.616Z,63.94
2023-03-28T10:01:42.645Z,65.11
2023-03-28T10:02:42.641Z,63.14
2023-03-28T10:03:42.593Z,64.14
2023-03-28T10:04:42.658Z,68.79
2023-03-28T10:05:42.586Z,62.43
2023-03-28T10:06:42.603Z,60.31
2023-03-28T10:07:42.778Z,61.94
2023-03-28T10:08:42.625Z,71.45
2023-03-28T10:09:42.578Z,69.59
2023-03-28T10:10:42.575Z,69.23
2023-03-28T10:11:42.551Z,64.41
2023-03-28T10:12:42.565Z,67.51
2023-03-28T10:13:42.561Z,63.47
2023-03-28T10:14:42.509Z,63.36
2023-03-28T10:15:42.581Z,67.51
2023-03-28T10:16:43.362Z,62.81
2023-03-28T10:17:42.570Z,71.20
2023-03-28T10:18:42.475Z,62.67
2023-03-28T10:19:42.512Z,61.86
2023-03-28T10:20:42.498Z,70.48
2023-03-28T10:21:42.496Z,69.76
2023-03-28T10:22:42.502Z,64.37
2023-03-28T10:23:42.479Z,62.48
2023-03-28T10:24:43.492Z,67.90
2023-03-28T10:25:42.477Z,64.72
2023-03-28T10:26:42.538Z,64.95
2023-03-28T10:27:42.498Z,65.32
2023-03-28T10:28:42.440Z,66.36
2023-03-28T10:30:08.999Z,65.82
2023-03-28T10:30:42.448Z,66.09
2023-03-28T10:31:42.404Z,63.33
2023-03-28T10:32:42.423Z,66.15
2023-03-28T10:33:42.360Z,64.69
2023-03-28T10:34:42.368Z,60.97
2023-03-28T10:35:42.405Z,68.14
2023-03-28T10:36:42.373Z,62.47
2023-03-28T10:37:42.373Z,62.51
2023-03-28T10:38:42.328Z,65.03
2023-03-28T10:39:42.304Z,58.87
2023-03-28T10:40:42.406Z,64.31
2023-03-28T10:41:42.317Z,55.06
2023-03-28T10:42:42.273Z,58.84
2023-03-28T10:43:42.361Z,67.49
2023-03-28T10:44:42.291Z,62.13
2023-03-28T10:45:42.287Z,64.97
2023-03-28T10:46:42.330Z,67.16
2023-03-28T10:47:42.315Z,64.66
2023-03-28T10:48:42.243Z,68.27
2023-03-28T10:49:42.246Z,63.42
2023-03-28T10:50:42.251Z,65.93
2023-03-28T10:51:42.229Z,69.28
2023-03-28T10:52:42.216Z,65.91
2023-03-28T10:53:42.240Z,65.00
2023-03-28T10:54:42.182Z,63.56
2023-03-28T10:55:42.228Z,64.12
2023-03-28T10:56:42.197Z,68.19
2023-03-28T10:57:42.217Z,68.62
2023-03-28T10:58:42.196Z,57.48
2023-03-28T10:59:42.169Z,65.83
2023-03-28T11:00:42.184Z,65.87
2023-03-28T11:01:42.213Z,62.43
2023-03-28T11:02:43.056Z,63.29
2023-03-28T11:03:42.178Z,68.99
2023-03-28T11:04:42.115Z,66.24
2023-03-28T11:05:42.222Z,64.42
2023-03-28T11:06:42.110Z,66.52
2023-03-28T11:07:43.022Z,69.51
2023-03-28T11:08:42.085Z,62.04
2023-03-28T11:09:42.090Z,67.12
2023-03-28T11:10:42.107Z,64.50
2023-03-28T11:11:42.123Z,68.23
2023-03-28T11:12:54.271Z,62.71
2023-03-28T11:13:44.055Z,60.82
2023-03-28T11:14:42.037Z,67.19
2023-03-28T11:15:42.034Z,69.24
2023-03-28T11:16:42.680Z,67.07
2023-03-28T11:17:42.051Z,67.49
2023-03-28T11:18:42.053Z,60.72
2023-03-28T11:19:42.031Z,61.56
2023-03-28T11:20:42.005Z,66.19
2023-03-28T11:21:42.002Z,66.84
2023-03-28T11:23:41.978Z,62.16
2023-03-28T11:24:41.969Z,64.92
2023-03-28T11:25:41.981Z,64.47
2023-03-28T11:26:41.971Z,63.05
2023-03-28T11:27:41.982Z,68.92
2023-03-28T11:28:43.146Z,65.98
2023-03-28T11:29:44.073Z,67.54
2023-03-28T11:30:42.919Z,65.20
2023-03-28T11:31:41.980Z,68.03
2023-03-28T11:32:41.917Z,60.91
2023-03-28T11:33:41.909Z,64.32
2023-03-28T11:34:42.930Z,68.58
2023-03-28T11:35:42.885Z,67.46
2023-03-28T11:36:41.877Z,67.66
2023-03-28T11:37:41.901Z,60.81
2023-03-28T11:38:41.892Z,68.30
2023-03-28T11:39:41.846Z,69.61
2023-03-28T11:40:41.881Z,66.90
2023-03-28T11:41:41.829Z,61.30
2023-03-28T11:42:41.844Z,66.40
2023-03-28T11:43:41.866Z,66.03
2023-03-28T11:44:42.591Z,63.40
2023-03-28T11:45:50.341Z,61.15
2023-03-28T11:46:43.878Z,69.54
2023-03-28T11:47:41.806Z,65.73
2023-03-28T11:48:41.770Z,64.20
2023-03-28T11:49:41.844Z,69.75
2023-03-28T11:50:41.784Z,71.17
2023-03-28T11:51:41.750Z,67.50
2023-03-28T11:52:42.757Z,66.03
2023-03-28T11:53:41.734Z,65.23
2023-03-28T11:54:41.756Z,60.87
2023-03-28T11:55:42.151Z,65.02
2023-03-28T11:56:41.734Z,67.18
2023-03-28T11:57:41.735Z,68.65
2023-03-28T11:58:41.696Z,64.64
2023-03-28T11:59:41.706Z,69.41
2023-03-28T12:00:42.528Z,64.79
2023-03-28T12:01:42.698Z,62.81
2023-03-28T12:02:41.860Z,66.26
2023-03-28T12:03:41.801Z,67.15
2023-03-28T12:04:41.665Z,65.07
2023-03-28T12:05:41.715Z,61.69
2023-03-28T12:06:52.152Z,67.02
2023-03-28T12:07:44.624Z,64.25
2023-03-28T12:08:41.644Z,65.49
2023-03-28T12:09:41.620Z,67.68
2023-03-28T12:10:41.616Z,68.02
2023-03-28T12:11:41.659Z,71.47
2023-03-28T12:12:41.623Z,68.27
2023-03-28T12:13:45.896Z,67.06
2023-03-28T12:14:42.598Z,66.26
2023-03-28T12:15:41.593Z,68.69
2023-03-28T12:16:42.327Z,64.39
2023-03-28T12:17:42.616Z,68.05
2023-03-28T12:18:41.567Z,69.41
2023-03-28T12:19:42.506Z,65.08
2023-03-28T12:20:41.605Z,68.27
2023-03-28T12:21:41.553Z,68.09
2023-03-28T12:22:41.529Z,67.78
2023-03-28T12:23:41.534Z,65.41
2023-03-28T12:24:41.496Z,65.76
2023-03-28T12:25:41.516Z,66.17
2023-03-28T12:26:41.524Z,65.80
2023-03-28T12:27:41.573Z,68.94
2023-03-28T12:28:41.478Z,67.45
2023-03-28T12:29:41.461Z,67.43
2023-03-28T12:30:41.479Z,65.65
2023-03-28T12:31:41.455Z,67.34
2023-03-28T12:32:41.467Z,64.53
2023-03-28T12:33:41.479Z,67.10
2023-03-28T12:34:41.403Z,65.45
2023-03-28T12:35:41.440Z,72.22
2023-03-28T12:36:41.507Z,66.92
2023-03-28T12:37:41.421Z,64.65
2023-03-28T12:38:41.426Z,65.61
2023-03-28T12:39:41.468Z,65.72
2023-03-28T12:40:41.364Z,68.15
2023-03-28T12:41:41.384Z,65.73
2023-03-28T12:42:41.357Z,67.66
2023-03-28T12:43:41.331Z,69.45
2023-03-28T12:44:41.350Z,66.69
2023-03-28T12:45:41.381Z,63.29
2023-03-28T12:46:41.473Z,67.15
2023-03-28T12:47:41.360Z,62.52
2023-03-28T12:48:41.333Z,68.98
2023-03-28T12:49:41.344Z,66.18
2023-03-28T12:50:41.293Z,64.86
2023-03-28T12:51:41.356Z,69.45
2023-03-28T12:52:41.294Z,63.48
2023-03-28T12:53:41.372Z,61.43
2023-03-28T12:54:41.274Z,68.07
2023-03-28T12:55:41.249Z,67.81
2023-03-28T12:56:41.348Z,67.91
2023-03-28T12:57:41.390Z,63.27
2023-03-28T12:58:41.232Z,69.33
2023-03-28T12:59:41.226Z,66.35
2023-03-28T13:00:41.206Z,71.50
2023-03-28T13:01:41.260Z,65.78
2023-03-28T13:02:41.217Z,61.43
2023-03-28T13:03:41.198Z,69.54
2023-03-28T13:04:41.446Z,58.22
2023-03-28T13:05:42.108Z,62.43
2023-03-28T13:06:41.183Z,66.76
2023-03-28T13:07:41.153Z,65.10
2023-03-28T13:08:41.134Z,67.01
2023-03-28T13:09:41.198Z,64.80